Airfield :







YOU CAN JOIN US ON...

 
LOGIN :

Register | Disclaimer

   EN    FR    IT 

 









Legend :    VFR   Marginal VFR   IFR   Intensive IFR   Very Intensive IFR
Visi :
Ceiling :
>= 8 km
>= 3000ft
5 to 8 km
1000 to 3000 ft
1500m to 5 km
500 to 1000 ft
800 to 1500m
200 to 500 ft
< 800m
< 200 ft
Symbols :   Thunderstorms  Fog  Heavy snow  Heavy precipitations  Wind > 20 kt






- Airport Elevation : 90 ft
- IATA code : YHU


CYHU - Montréal Saint-Hubert

CURRENT METAR :
  • 231400Z AUTO 25010G16KT 9SM SCT039 OVC060 M08/M12 A2978 RMK SLP087

EXPIRED METARs :
  • 231343Z AUTO 25009KT 9SM BKN039 OVC046 M08/M11 A2978 RMK SLP088
  • 231335Z AUTO 24005KT 6SM -SN OVC041 M11/M13 A2978 RMK SLP089
  • 231319Z AUTO 21002KT 3SM -SN OVC033 M11/M13 A2978 RMK SLP089
  • 231309Z AUTO 25004KT 230V310 1 1/2SM -SN FEW020 OVC025 M11/M13 A2978 RMK SLP089
  • 231245Z AUTO 22003KT 1 1/2SM -SN OVC023 M14/M16 A2978 RMK SLP087
  • 231237Z AUTO 00000KT 1 3/4SM -SN OVC027 M14/M17 A2978 RMK SLP088
  • 231202Z AUTO 00000KT 2 1/4SM -SN OVC035 M15/M17 A2977 RMK SLP086

TAF AMD TAF CYHU
Valid from the 23 at 13:00 until the 24 at 12:00 UTC


231302Z 2313/2412 VRB03KT 1SM -SN VV010
TEMPO 2313/2314 6SM -SN OVC025
FM231400 23010KT P6SM BKN030 BKN080
TEMPO 2314/2316 5SM -SN BKN020 OVC060
BECMG 2314/2316 26012G22KT
FM231600 26012G22KT P6SM BKN030
BECMG 2318/2320 FEW030
FM232200 28010G20KT P6SM SKC
BECMG 2322/2324 30008KT
FM240500 VRB03KT P6SM SKC RMK FCST BASED ON AUTO OBS. NXT FCST BY 231800Z
CZUL FIR / North America



MET'MAP, your aeronautical weather chart ! - Copyright ORBIFLY December 2007 - Disclaimer

ORBIFLY MET'MAP TEAM :

Programming & Development : Alexandra Zaïnal
Concept & original design : Baudouin d'Aumeries
Assistance for programming : Marc-Olivier Méhu
Technical & hardware support : Manuel Goepfert

Contact : metmap@orbifly.com




SOURCES & CREDITS :

   NOAA